This is the latest recevied weather packets stored in our database for station/object DL4YM-13. If no packets are shown the sender has not sent any weather packets the latest 10 day(s).
| Time | Temp. | Humidity | Pressure | Rain* | Wind** | Luminosity | Snow |
|---|---|---|---|---|---|---|---|
| 1777891527 | 19.44° C | 57% | 997.5 hPa | - | - | - | - |
| 1777890926 | 20° C | 58% | 997.5 hPa | - | - | - | - |
| 1777890327 | 19.44° C | 57% | 997.6 hPa | - | - | - | - |
| 1777889727 | 18.89° C | 61% | 997.6 hPa | - | - | - | - |
| 1777889127 | 18.89° C | 61% | 997.7 hPa | - | - | - | - |
| 1777888527 | 18.89° C | 60% | 997.6 hPa | - | - | - | - |
| 1777887926 | 18.33° C | 66% | 997.7 hPa | - | - | - | - |
| 1777887326 | 17.78° C | 65% | 997.9 hPa | - | - | - | - |
| 1777886726 | 17.22° C | 66% | 998 hPa | - | - | - | - |
| 1777886127 | 16.67° C | 68% | 998 hPa | - | - | - | - |
| 1777885526 | 17.78° C | 67% | 998 hPa | - | - | - | - |
| 1777884927 | 17.78° C | 67% | 998 hPa | - | - | - | - |
| 1777884326 | 17.78° C | 67% | 998 hPa | - | - | - | - |
| 1777883726 | 16.67° C | 69% | 997.9 hPa | - | - | - | - |
| 1777883127 | 16.67° C | 69% | 998 hPa | - | - | - | - |
| 1777882527 | 16.11° C | 71% | 998 hPa | - | - | - | - |
| 1777881926 | 16.11° C | 71% | 998 hPa | - | - | - | - |
| 1777881326 | 15.56° C | 74% | 997.8 hPa | - | - | - | - |
| 1777880726 | 15.56° C | 74% | 997.8 hPa | - | - | - | - |
| 1777880127 | 15.56° C | 74% | 997.7 hPa | - | - | - | - |
| 1777879526 | 15.56° C | 75% | 997.6 hPa | - | - | - | - |
| 1777878927 | 15° C | 75% | 997.7 hPa | - | - | - | - |
| 1777878326 | 15° C | 75% | 997.6 hPa | - | - | - | - |
| 1777877727 | 13.89° C | 79% | 997.7 hPa | - | - | - | - |
| 1777877127 | 13.89° C | 79% | 997.7 hPa | - | - | - | - |
* Rain since midnight (hover to see other rain measurements)
** Current wind speed in m/s (hover to see current wind gust speed)